메인 페이지
METAR-TAF:

METAR-TAF

공항 :

뉴도하 국제공항

도하, 카타르

위도: 25-16-23N, 경도: 51-36-29E, 고도: 4m

현재 날씨관측

예보는 42분 전, 17:00시(UTC)에 발표되었습니다.
12kt
온도 33°C
습도 59%
기압 1003 hPa
시정 10km 이상
1500m 미만 상공 구름 및 적란운 없음

METAR: OTHH 311700Z AUTO 01012KT CAVOK 33/24 Q1003 NOSIG

시각: 20:42 (17:42 UTC)

예보

예보는 40분 전, 17:02시(UTC)에 발표되었습니다.
예보 대상 시간: 31일 18시부터 01일 24시까지 (UTC)
10kt
시정: 8000m
전환 중
31일 20시부터 31일 22시까지 (UTC)
7kt
확률 30% :
일시적
31일 23시부터 01일 04시까지 (UTC)
여러 방향의 바람 2kt
시정: 5000m
연무
일시적
01일 03시부터 01일 05시까지 (UTC)
남서8kt
전환 중
01일 08시부터 01일 10시까지 (UTC)
10kt

TAF: OTHH 311702Z 3118/0124 35010KT 8000 NSC BECMG 3120/3122 28007KT PROB30 TEMPO 3123/0104 VRB02KT 5000 HZ TEMPO 0103/0105 22008KT BECMG 0108/0110 09010KT

4,000개 이상의 공항 관측 자료 및 예보 (METAR 및 TAF 보고).

지도상에서 검색 가능한 기상관측소가 노란 점과 빨간 점으로 표시되어 있습니다.

기상관측소 명을 보려면 표시 위로 마우스를 이동하세요.

날씨 관측과 예보를 보려면 클릭하세요.

지도 변경 : 확대하려면 엑스 표시가 있는 녹색 버튼, 축소하려면 빼기 표시가 있는 녹색 버튼, 다음 페이지의 지도를 보려면 녹색 화살표를 클릭하세요.


METAR-TAF: